TAF LESO
AMD LESO 090938Z 0909/1006 21006KT 9999 SCT010 BKN040 TX12/0916Z TN08/0909Z BECMG 0911/0915 28011KT TEMPO 0909/1006 3000 RA BKN010 TEMPO 0913/1006 28019G33KT PROB40 TEMPO 0916/1006 28023G43KT=
METAR LESO
LESO 091030Z 15004KT 110V180 6000 +RA BKN025 OVC044 08/07 Q1015=
LESO 091000Z 17004KT 140V230 9999 RA SCT025 OVC048 08/08 Q1015=
LESO 090930Z 18005KT 150V230 9999 RA FEW003 BKN042 08/07 Q1015=
LESO 090900Z 21005KT 9000 RA FEW003 SCT016 OVC029 08/08 Q1016=
LESO 090830Z 20004KT 170V230 4500 +RA SCT016 BKN030 08/08 Q1016=
WC LESO
WS LESO
WV LESO